createdAt,value
2023-11-28T00:02:08.705Z,17.85
2023-11-28T00:04:35.493Z,19.73
2023-11-28T00:07:02.119Z,16.83
2023-11-28T00:09:28.728Z,21.73
2023-11-28T00:11:55.368Z,18.80
2023-11-28T00:14:21.852Z,17.52
2023-11-28T00:16:48.420Z,19.85
2023-11-28T00:19:15.252Z,19.00
2023-11-28T00:21:41.881Z,21.33
2023-11-28T00:24:08.698Z,19.92
2023-11-28T00:26:36.458Z,20.05
2023-11-28T00:29:03.384Z,20.80
2023-11-28T00:31:30.086Z,21.80
2023-11-28T00:33:56.799Z,21.15
2023-11-28T00:36:23.397Z,21.05
2023-11-28T00:38:49.856Z,21.60
2023-11-28T00:41:16.349Z,20.25
2023-11-28T00:43:42.944Z,20.33
2023-11-28T00:46:09.549Z,22.40
2023-11-28T00:48:36.160Z,26.00
2023-11-28T00:51:02.757Z,24.42
2023-11-28T00:53:29.276Z,24.17
2023-11-28T00:55:55.901Z,25.05
2023-11-28T00:58:22.477Z,23.45
2023-11-28T01:00:49.039Z,22.20
2023-11-28T01:03:15.643Z,19.75
2023-11-28T01:05:42.240Z,18.20
2023-11-28T01:08:08.760Z,14.20
2023-11-28T01:10:35.231Z,12.38
2023-11-28T01:13:01.837Z,13.65
2023-11-28T01:15:28.428Z,9.55
2023-11-28T01:17:55.067Z,11.45
2023-11-28T01:20:21.729Z,11.05
2023-11-28T01:22:48.334Z,12.38
2023-11-28T01:25:14.937Z,10.43
2023-11-28T01:27:41.761Z,9.75
2023-11-28T01:30:08.812Z,7.93
2023-11-28T01:32:35.542Z,8.73
2023-11-28T01:35:02.276Z,10.15
2023-11-28T01:37:28.884Z,7.88
2023-11-28T01:39:55.458Z,9.30
2023-11-28T01:42:22.009Z,8.43
2023-11-28T01:44:48.592Z,6.28
2023-11-28T01:47:15.596Z,6.38
2023-11-28T01:49:42.329Z,6.55
2023-11-28T01:52:09.901Z,7.60
2023-11-28T01:54:36.904Z,4.40
2023-11-28T01:57:03.766Z,8.20
2023-11-28T01:59:32.420Z,10.15
2023-11-28T02:01:59.169Z,11.45
2023-11-28T02:04:26.389Z,3.83
2023-11-28T02:06:53.114Z,6.07
2023-11-28T02:09:19.614Z,7.57
2023-11-28T02:11:46.129Z,4.82
2023-11-28T02:14:12.697Z,4.25
2023-11-28T02:16:39.384Z,3.30
2023-11-28T02:19:05.984Z,5.03
2023-11-28T02:21:32.888Z,4.57
2023-11-28T02:23:59.709Z,5.53
2023-11-28T02:26:28.060Z,7.53
2023-11-28T02:28:55.917Z,6.30
2023-11-28T02:31:22.990Z,8.57
2023-11-28T02:33:49.955Z,7.97
2023-11-28T02:36:16.648Z,10.57
2023-11-28T02:38:43.230Z,7.35
2023-11-28T02:41:09.807Z,8.63
2023-11-28T02:43:36.463Z,8.63
2023-11-28T02:46:03.187Z,9.07
2023-11-28T02:48:30.042Z,8.27
2023-11-28T02:50:56.664Z,7.72
2023-11-28T02:53:23.250Z,9.32
2023-11-28T02:55:49.944Z,9.73
2023-11-28T02:58:16.531Z,8.52
2023-11-28T03:00:43.116Z,8.60
2023-11-28T03:03:09.938Z,8.70
2023-11-28T03:05:36.522Z,9.75
2023-11-28T03:08:03.214Z,10.05
2023-11-28T03:10:29.853Z,10.45
2023-11-28T03:12:56.460Z,10.88
2023-11-28T03:15:23.000Z,11.38
2023-11-28T03:17:49.671Z,11.77
2023-11-28T03:20:16.392Z,12.55
2023-11-28T03:22:43.003Z,16.60
2023-11-28T03:25:10.674Z,24.42
2023-11-28T03:27:37.418Z,17.05
2023-11-28T03:30:04.608Z,17.15
2023-11-28T03:32:31.460Z,17.08
2023-11-28T03:34:58.145Z,12.95
2023-11-28T03:37:24.744Z,14.27
2023-11-28T03:39:51.408Z,14.48
2023-11-28T03:42:19.254Z,15.13
2023-11-28T03:44:45.773Z,14.48
2023-11-28T03:47:12.561Z,17.27
2023-11-28T03:49:39.204Z,12.70
2023-11-28T03:52:06.205Z,17.40
2023-11-28T03:54:32.772Z,15.15
2023-11-28T03:56:59.263Z,15.43
2023-11-28T03:59:25.804Z,11.90
2023-11-28T04:01:52.442Z,15.25
2023-11-28T04:04:19.221Z,14.57
2023-11-28T04:06:45.842Z,11.32
2023-11-28T04:09:12.588Z,11.65
2023-11-28T04:11:39.148Z,10.27
2023-11-28T04:14:05.860Z,11.77
2023-11-28T04:16:32.541Z,10.43
2023-11-28T04:18:59.118Z,15.10
2023-11-28T04:21:25.711Z,17.10
2023-11-28T04:23:52.219Z,11.07
2023-11-28T04:26:18.789Z,10.52
2023-11-28T04:28:45.372Z,12.18
2023-11-28T04:31:21.834Z,11.82
2023-11-28T04:33:48.751Z,11.70
2023-11-28T04:36:15.752Z,19.10
2023-11-28T04:38:43.271Z,12.05
2023-11-28T04:41:12.014Z,12.05
2023-11-28T04:43:38.778Z,14.27
2023-11-28T04:46:05.712Z,13.38
2023-11-28T04:48:32.479Z,12.57
2023-11-28T04:50:59.037Z,15.48
2023-11-28T04:53:25.572Z,15.25
2023-11-28T04:55:52.247Z,13.23
2023-11-28T04:58:18.833Z,16.15
2023-11-28T05:00:45.430Z,18.10
2023-11-28T05:03:12.253Z,18.33
2023-11-28T05:05:39.378Z,20.33
2023-11-28T05:08:06.169Z,20.13
2023-11-28T05:10:32.869Z,16.77
2023-11-28T05:12:59.397Z,19.00
2023-11-28T05:15:25.981Z,20.25
2023-11-28T05:17:52.644Z,19.52
2023-11-28T05:20:19.378Z,20.30
2023-11-28T05:22:46.022Z,19.15
2023-11-28T05:25:12.670Z,22.23
2023-11-28T05:27:39.225Z,22.90
2023-11-28T05:30:07.416Z,25.40
2023-11-28T05:32:34.063Z,27.80
2023-11-28T05:35:00.775Z,26.90
2023-11-28T05:37:27.356Z,34.35
2023-11-28T05:39:53.838Z,35.72
2023-11-28T05:42:20.411Z,44.72
2023-11-28T05:44:46.963Z,36.65
2023-11-28T05:47:13.608Z,41.35
2023-11-28T05:49:40.251Z,36.65
2023-11-28T05:52:06.879Z,43.85
2023-11-28T05:54:33.408Z,42.80
2023-11-28T05:57:00.022Z,39.15
2023-11-28T05:59:26.545Z,35.00
2023-11-28T06:02:01.213Z,45.33
2023-11-28T06:04:28.760Z,32.85
2023-11-28T06:06:55.369Z,38.50
2023-11-28T06:09:21.967Z,28.13
2023-11-28T06:11:48.510Z,31.35
2023-11-28T06:14:15.098Z,31.60
2023-11-28T06:16:41.665Z,31.38
2023-11-28T06:19:08.246Z,34.70
2023-11-28T06:21:34.824Z,27.73
2023-11-28T06:24:01.325Z,36.92
2023-11-28T06:26:27.853Z,31.55
2023-11-28T06:28:54.432Z,29.10
2023-11-28T06:31:20.990Z,25.35
2023-11-28T06:33:47.801Z,31.40
2023-11-28T06:36:14.355Z,28.92
2023-11-28T06:38:40.864Z,32.05
2023-11-28T06:41:07.567Z,24.33
2023-11-28T06:43:34.600Z,26.95
2023-11-28T06:46:01.238Z,27.05
2023-11-28T06:48:27.947Z,29.38
2023-11-28T06:50:54.555Z,25.42
2023-11-28T06:53:20.996Z,30.20
2023-11-28T06:55:47.594Z,28.60
2023-11-28T06:58:14.235Z,27.20
2023-11-28T07:00:40.797Z,24.60
2023-11-28T07:03:07.400Z,23.85
2023-11-28T07:05:33.932Z,29.55
2023-11-28T07:08:00.538Z,26.75
2023-11-28T07:10:27.075Z,25.67
2023-11-28T07:12:53.590Z,25.48
2023-11-28T07:15:20.286Z,28.90
2023-11-28T07:17:46.833Z,28.20
2023-11-28T07:20:13.462Z,27.17
2023-11-28T07:22:40.134Z,26.23
2023-11-28T07:25:07.010Z,24.83
2023-11-28T07:27:33.699Z,22.05
2023-11-28T07:30:00.366Z,25.88
2023-11-28T07:32:27.088Z,21.23
2023-11-28T07:34:53.693Z,21.05
2023-11-28T07:37:20.266Z,26.65
2023-11-28T07:39:46.798Z,21.38
2023-11-28T07:42:13.354Z,22.40
2023-11-28T07:44:39.942Z,19.67
2023-11-28T07:47:06.516Z,21.33
2023-11-28T07:49:33.096Z,23.08
2023-11-28T07:51:59.641Z,22.08
2023-11-28T07:54:26.252Z,24.05
2023-11-28T07:56:52.855Z,23.00
2023-11-28T07:59:19.531Z,21.17
2023-11-28T08:01:46.223Z,26.42
2023-11-28T08:04:12.953Z,18.52
2023-11-28T08:06:39.605Z,18.27
2023-11-28T08:09:06.102Z,18.17
2023-11-28T08:11:32.680Z,16.45
2023-11-28T08:13:59.340Z,17.05
2023-11-28T08:16:25.984Z,16.13
2023-11-28T08:18:53.315Z,18.67
2023-11-28T08:21:19.856Z,15.88
2023-11-28T08:23:46.601Z,18.27
2023-11-28T08:26:13.290Z,15.73
2023-11-28T08:28:40.010Z,14.10
2023-11-28T08:31:08.592Z,14.48
2023-11-28T08:33:35.311Z,14.23
2023-11-28T08:36:02.053Z,16.15
2023-11-28T08:38:31.166Z,12.60
2023-11-28T08:40:57.719Z,14.15
2023-11-28T08:43:24.456Z,12.07
2023-11-28T08:45:51.046Z,12.55
2023-11-28T08:48:17.634Z,12.57
2023-11-28T08:50:44.247Z,8.68
2023-11-28T08:53:10.926Z,10.18
2023-11-28T08:55:37.542Z,9.27
2023-11-28T08:58:04.090Z,9.98
2023-11-28T09:00:30.628Z,12.43
2023-11-28T09:02:57.420Z,8.82
2023-11-28T09:05:24.122Z,8.35
2023-11-28T09:07:50.819Z,9.48
2023-11-28T09:10:17.526Z,9.60
2023-11-28T09:12:44.058Z,9.32
2023-11-28T09:15:10.954Z,7.72
2023-11-28T09:17:37.596Z,7.65
2023-11-28T09:20:04.725Z,7.93
2023-11-28T09:22:31.392Z,11.50
2023-11-28T09:24:58.064Z,8.85
2023-11-28T09:27:24.619Z,7.82
2023-11-28T09:29:53.494Z,8.35
2023-11-28T09:32:21.284Z,6.80
2023-11-28T09:34:47.980Z,6.22
2023-11-28T09:37:15.064Z,7.50
2023-11-28T09:39:41.688Z,5.53
2023-11-28T09:42:11.871Z,10.27
2023-11-28T09:44:41.440Z,7.00
2023-11-28T09:47:09.384Z,7.10
2023-11-28T09:49:42.955Z,8.15
2023-11-28T09:52:10.954Z,11.65
2023-11-28T09:54:37.749Z,5.88
2023-11-28T09:57:06.457Z,5.75
2023-11-28T09:59:44.860Z,7.93
2023-11-28T10:02:16.216Z,5.57
2023-11-28T10:04:43.499Z,6.78
2023-11-28T10:07:12.587Z,8.93
2023-11-28T10:09:42.596Z,7.38
2023-11-28T10:12:09.541Z,5.75
2023-11-28T10:14:39.799Z,5.32
2023-11-28T10:17:06.431Z,6.18
2023-11-28T10:19:34.052Z,6.03
2023-11-28T10:22:04.107Z,7.88
2023-11-28T10:24:30.675Z,4.47
2023-11-28T10:26:57.345Z,5.22
2023-11-28T10:29:23.888Z,7.65
2023-11-28T10:31:50.532Z,5.25
2023-11-28T10:34:17.132Z,7.45
2023-11-28T10:36:47.786Z,3.83
2023-11-28T10:39:16.161Z,6.07
2023-11-28T10:41:42.856Z,12.07
2023-11-28T10:44:09.663Z,7.07
2023-11-28T10:46:38.627Z,8.85
2023-11-28T10:49:05.441Z,7.88
2023-11-28T10:51:33.337Z,7.50
2023-11-28T10:54:07.432Z,6.60
2023-11-28T10:56:47.126Z,7.30
2023-11-28T10:59:37.853Z,9.98
2023-11-28T11:02:05.988Z,7.05
2023-11-28T11:04:33.516Z,7.75
2023-11-28T11:07:00.666Z,6.82
2023-11-28T11:09:28.255Z,5.07
2023-11-28T11:11:57.089Z,5.82
2023-11-28T11:15:01.460Z,7.57
2023-11-28T11:17:44.422Z,4.65
2023-11-28T11:20:13.967Z,5.90
2023-11-28T11:22:45.488Z,8.25
2023-11-28T11:25:12.136Z,5.22
2023-11-28T11:27:38.785Z,6.20
2023-11-28T11:30:06.233Z,11.80
2023-11-28T11:32:35.706Z,9.70
2023-11-28T11:35:02.879Z,7.65
2023-11-28T11:37:33.970Z,8.18
2023-11-28T11:40:02.244Z,11.27
2023-11-28T11:42:29.693Z,6.38
2023-11-28T11:44:58.288Z,5.60
2023-11-28T11:47:26.758Z,4.50
2023-11-28T11:49:55.706Z,5.47
2023-11-28T11:52:22.984Z,3.67
2023-11-28T11:54:49.604Z,4.05
2023-11-28T11:57:16.182Z,4.00
2023-11-28T11:59:42.856Z,5.35
2023-11-28T12:02:09.753Z,5.60
2023-11-28T12:04:42.359Z,2.22
2023-11-28T12:07:11.267Z,7.97
2023-11-28T12:09:37.930Z,2.97
2023-11-28T12:12:04.654Z,3.55
2023-11-28T12:14:32.271Z,6.63
2023-11-28T12:17:00.073Z,5.20
2023-11-28T12:19:26.645Z,4.03
2023-11-28T12:21:53.242Z,5.40
2023-11-28T12:24:19.759Z,8.85
2023-11-28T12:26:47.071Z,3.50
2023-11-28T12:29:13.738Z,5.35
2023-11-28T12:31:40.647Z,3.90
2023-11-28T12:34:07.535Z,2.08
2023-11-28T12:36:34.392Z,4.15
2023-11-28T12:39:00.998Z,6.50
2023-11-28T12:41:35.511Z,3.75
2023-11-28T12:44:02.249Z,4.28
2023-11-28T12:46:31.874Z,4.95
2023-11-28T12:48:59.013Z,7.88
2023-11-28T12:51:25.615Z,7.47
2023-11-28T12:53:52.155Z,7.93
2023-11-28T12:56:18.781Z,5.60
2023-11-28T12:58:45.329Z,3.90
2023-11-28T13:01:11.896Z,3.90
2023-11-28T13:03:38.620Z,5.60
2023-11-28T13:06:05.458Z,6.07
2023-11-28T13:08:32.030Z,3.75
2023-11-28T13:10:58.638Z,3.47
2023-11-28T13:13:25.269Z,1.70
2023-11-28T13:15:51.906Z,7.07
2023-11-28T13:18:18.571Z,1.95
2023-11-28T13:20:45.234Z,6.40
2023-11-28T13:23:11.949Z,3.22
2023-11-28T13:25:38.587Z,4.32
2023-11-28T13:28:05.322Z,3.30
2023-11-28T13:30:31.944Z,2.10
2023-11-28T13:32:58.557Z,3.45
2023-11-28T13:35:25.163Z,2.65
2023-11-28T13:37:51.887Z,12.82
2023-11-28T13:40:18.403Z,3.95
2023-11-28T13:42:44.953Z,3.00
2023-11-28T13:45:11.513Z,4.15
2023-11-28T13:47:38.162Z,4.25
2023-11-28T13:50:05.037Z,3.03
2023-11-28T13:52:31.639Z,3.30
2023-11-28T13:54:58.254Z,4.05
2023-11-28T13:57:24.856Z,6.57
2023-11-28T13:59:51.482Z,2.13
2023-11-28T14:02:18.096Z,5.32
2023-11-28T14:04:44.571Z,3.10
2023-11-28T14:07:11.073Z,4.43
2023-11-28T14:09:37.633Z,1.75
2023-11-28T14:12:04.420Z,5.30
2023-11-28T14:14:42.810Z,3.85
2023-11-28T14:17:17.006Z,2.35
2023-11-28T14:19:43.589Z,3.13
2023-11-28T14:22:10.324Z,2.97
2023-11-28T14:24:36.855Z,1.75
2023-11-28T14:27:04.590Z,3.17
2023-11-28T14:29:32.542Z,3.67
2023-11-28T14:31:59.082Z,1.80
2023-11-28T14:34:26.430Z,3.17
2023-11-28T14:36:53.036Z,1.58
2023-11-28T14:39:19.699Z,4.07
2023-11-28T14:41:46.201Z,5.00
2023-11-28T14:44:12.801Z,4.97
2023-11-28T14:46:39.468Z,5.35
2023-11-28T14:49:06.022Z,2.22
2023-11-28T14:51:32.528Z,4.78
2023-11-28T14:53:59.207Z,2.47
2023-11-28T14:56:25.811Z,2.55
2023-11-28T14:58:52.401Z,1.30
2023-11-28T15:01:19.971Z,3.10
2023-11-28T15:03:46.606Z,2.15
2023-11-28T15:06:13.319Z,3.65
2023-11-28T15:08:42.968Z,3.40
2023-11-28T15:11:12.031Z,2.35
2023-11-28T15:13:39.600Z,2.53
2023-11-28T15:16:07.093Z,2.20
2023-11-28T15:18:33.755Z,3.70
2023-11-28T15:21:01.211Z,2.97
2023-11-28T15:23:27.862Z,7.38
2023-11-28T15:25:54.463Z,7.45
2023-11-28T15:28:21.013Z,8.73
2023-11-28T15:30:47.636Z,4.28
2023-11-28T15:33:14.432Z,10.48
2023-11-28T15:35:41.193Z,5.55
2023-11-28T15:38:07.825Z,4.85
2023-11-28T15:40:35.768Z,7.80
2023-11-28T15:43:02.626Z,4.45
2023-11-28T15:45:29.217Z,4.70
2023-11-28T15:47:55.804Z,5.35
2023-11-28T15:50:22.376Z,7.45
2023-11-28T15:52:49.004Z,5.13
2023-11-28T15:55:15.725Z,8.48
2023-11-28T15:57:42.269Z,5.95
2023-11-28T16:00:09.203Z,8.48
2023-11-28T16:02:36.005Z,5.28
2023-11-28T16:05:03.098Z,13.43
2023-11-28T16:07:29.748Z,16.45
2023-11-28T16:09:56.312Z,13.68
2023-11-28T16:12:22.967Z,14.68
2023-11-28T16:14:50.815Z,16.92
2023-11-28T16:17:17.756Z,15.98
2023-11-28T16:19:44.607Z,23.63
2023-11-28T16:22:11.129Z,29.95
2023-11-28T16:24:37.632Z,23.88
2023-11-28T16:27:04.397Z,30.20
2023-11-28T16:29:30.950Z,54.35
2023-11-28T16:31:57.512Z,42.58
2023-11-28T16:34:24.036Z,43.15
2023-11-28T16:36:50.607Z,43.22
2023-11-28T16:39:17.211Z,25.85
2023-11-28T16:41:43.734Z,19.40
2023-11-28T16:44:10.371Z,15.98
2023-11-28T16:46:37.712Z,20.75
2023-11-28T16:49:04.777Z,18.92
2023-11-28T16:51:31.360Z,25.88
2023-11-28T16:53:57.931Z,29.05
2023-11-28T16:56:24.935Z,23.20
2023-11-28T16:58:52.172Z,30.85
2023-11-28T17:01:18.881Z,35.92
2023-11-28T17:03:45.593Z,28.65
2023-11-28T17:06:13.409Z,32.00
2023-11-28T17:08:40.774Z,18.67
2023-11-28T17:11:07.377Z,15.02
2023-11-28T17:13:34.041Z,19.52
2023-11-28T17:16:00.549Z,20.10
2023-11-28T17:18:27.124Z,23.42
2023-11-28T17:20:53.634Z,21.40
2023-11-28T17:23:20.190Z,23.38
2023-11-28T17:25:46.750Z,15.48
2023-11-28T17:28:13.353Z,13.35
2023-11-28T17:30:40.021Z,12.38
2023-11-28T17:33:06.609Z,14.60
2023-11-28T17:35:33.227Z,10.48
2023-11-28T17:37:59.810Z,10.63
2023-11-28T17:40:26.351Z,9.90
2023-11-28T17:42:52.812Z,10.50
2023-11-28T17:45:19.348Z,12.60
2023-11-28T17:47:46.099Z,7.90
2023-11-28T17:50:12.748Z,14.40
2023-11-28T17:52:39.337Z,9.45
2023-11-28T17:55:06.594Z,14.80
2023-11-28T17:57:33.195Z,19.35
2023-11-28T18:00:00.009Z,31.52
2023-11-28T18:02:26.808Z,35.58
2023-11-28T18:04:53.591Z,29.58
2023-11-28T18:07:20.121Z,19.80
2023-11-28T18:09:46.623Z,8.85
2023-11-28T18:12:13.197Z,12.52
2023-11-28T18:14:39.757Z,9.07
2023-11-28T18:17:06.464Z,9.27
2023-11-28T18:19:33.181Z,16.55
2023-11-28T18:22:00.275Z,15.25
2023-11-28T18:24:26.845Z,17.23
2023-11-28T18:26:53.521Z,14.52
2023-11-28T18:29:20.103Z,19.05
2023-11-28T18:31:47.104Z,17.35
2023-11-28T18:34:14.054Z,12.95
2023-11-28T18:36:40.837Z,12.07
2023-11-28T18:39:07.577Z,11.70
2023-11-28T18:41:38.414Z,20.00
2023-11-28T18:44:07.175Z,23.53
2023-11-28T18:46:34.470Z,23.92
2023-11-28T18:49:01.317Z,25.83
2023-11-28T18:51:29.221Z,23.98
2023-11-28T18:53:56.845Z,28.70
2023-11-28T18:56:25.215Z,61.03
2023-11-28T18:58:51.721Z,44.65
2023-11-28T19:01:19.894Z,60.92
2023-11-28T19:03:48.234Z,40.80
2023-11-28T19:06:16.036Z,37.95
2023-11-28T19:08:44.371Z,35.13
2023-11-28T19:11:11.623Z,41.47
2023-11-28T19:13:39.021Z,51.53
2023-11-28T19:16:06.420Z,52.67
2023-11-28T19:18:33.285Z,62.38
2023-11-28T19:21:00.876Z,69.80
2023-11-28T19:23:27.991Z,62.85
2023-11-28T19:25:54.749Z,60.38
2023-11-28T19:28:21.416Z,48.47
2023-11-28T19:30:48.031Z,46.33
2023-11-28T19:33:14.658Z,38.47
2023-11-28T19:35:41.283Z,36.05
2023-11-28T19:38:07.812Z,28.38
2023-11-28T19:40:34.483Z,28.70
2023-11-28T19:43:01.099Z,16.40
2023-11-28T19:45:27.866Z,16.65
2023-11-28T19:47:54.639Z,13.80
2023-11-28T19:50:21.317Z,8.80
2023-11-28T19:52:47.803Z,9.52
2023-11-28T19:55:16.992Z,13.02
2023-11-28T19:57:43.633Z,8.88
2023-11-28T20:00:10.805Z,11.00
2023-11-28T20:02:40.738Z,7.85
2023-11-28T20:05:07.763Z,10.77
2023-11-28T20:07:34.460Z,14.10
2023-11-28T20:10:01.082Z,17.05
2023-11-28T20:12:27.879Z,12.95
2023-11-28T20:14:54.443Z,10.70
2023-11-28T20:17:21.001Z,63.97
2023-11-28T20:19:47.609Z,68.75
2023-11-28T20:22:15.337Z,82.57
2023-11-28T20:24:42.386Z,31.50
2023-11-28T20:27:09.049Z,32.10
2023-11-28T20:29:35.630Z,39.75
2023-11-28T20:32:02.205Z,64.43
2023-11-28T20:34:29.133Z,71.38
2023-11-28T20:37:10.102Z,65.63
2023-11-28T20:39:42.765Z,77.53
2023-11-28T20:42:09.349Z,55.80
2023-11-28T20:44:36.541Z,79.22
2023-11-28T20:47:03.215Z,76.38
2023-11-28T20:49:29.879Z,62.33
2023-11-28T20:51:56.540Z,45.63
2023-11-28T20:54:24.004Z,38.28
2023-11-28T20:56:50.688Z,27.15
2023-11-28T20:59:17.253Z,22.48
2023-11-28T21:01:44.052Z,17.67
2023-11-28T21:04:10.636Z,21.02
2023-11-28T21:06:37.248Z,17.38
2023-11-28T21:09:04.123Z,24.27
2023-11-28T21:11:30.714Z,19.15
2023-11-28T21:13:57.292Z,23.65
2023-11-28T21:16:23.861Z,22.98
2023-11-28T21:18:50.418Z,25.35
2023-11-28T21:21:26.890Z,30.73
2023-11-28T21:23:53.840Z,26.40
2023-11-28T21:26:20.406Z,38.58
2023-11-28T21:28:46.929Z,28.40
2023-11-28T21:31:13.647Z,25.70
2023-11-28T21:33:40.257Z,30.45
2023-11-28T21:36:10.280Z,28.92
2023-11-28T21:38:36.964Z,22.30
2023-11-28T21:41:03.673Z,30.55
2023-11-28T21:43:30.278Z,29.58
2023-11-28T21:45:56.836Z,26.17
2023-11-28T21:48:27.806Z,25.50
2023-11-28T21:50:55.228Z,26.80
2023-11-28T21:53:21.848Z,24.27
2023-11-28T21:55:48.477Z,24.20
2023-11-28T21:58:14.956Z,24.23
2023-11-28T22:00:41.435Z,20.20
2023-11-28T22:03:08.482Z,25.48
2023-11-28T22:05:35.154Z,21.58
2023-11-28T22:08:01.747Z,18.58
2023-11-28T22:10:28.426Z,23.52
2023-11-28T22:12:55.082Z,26.55
2023-11-28T22:15:21.639Z,18.15
2023-11-28T22:17:48.707Z,20.50
2023-11-28T22:20:15.453Z,22.70
2023-11-28T22:22:42.034Z,23.77
2023-11-28T22:25:08.579Z,21.48
2023-11-28T22:27:36.779Z,22.70
2023-11-28T22:30:03.961Z,25.25
2023-11-28T22:32:30.648Z,20.50
2023-11-28T22:34:57.276Z,24.08
2023-11-28T22:37:23.839Z,29.50
2023-11-28T22:39:50.423Z,21.98
2023-11-28T22:42:16.976Z,20.95
2023-11-28T22:44:43.527Z,18.55
2023-11-28T22:47:10.827Z,21.48
2023-11-28T22:49:38.649Z,19.98
2023-11-28T22:52:06.165Z,19.25
2023-11-28T22:54:33.515Z,24.75
2023-11-28T22:57:00.336Z,26.98
2023-11-28T22:59:26.962Z,19.25
2023-11-28T23:01:53.658Z,20.85
2023-11-28T23:04:20.323Z,16.70
2023-11-28T23:06:46.985Z,17.13
2023-11-28T23:09:13.683Z,18.42
2023-11-28T23:11:40.373Z,20.92
2023-11-28T23:14:07.005Z,16.77
2023-11-28T23:16:33.735Z,17.42
2023-11-28T23:19:00.311Z,26.48
2023-11-28T23:21:26.803Z,24.63
2023-11-28T23:23:53.868Z,21.42
2023-11-28T23:26:22.039Z,16.55
2023-11-28T23:28:52.163Z,16.88
2023-11-28T23:31:18.786Z,18.58
2023-11-28T23:33:45.357Z,15.60
2023-11-28T23:36:12.714Z,17.88
2023-11-28T23:38:39.430Z,15.32
2023-11-28T23:41:06.202Z,21.42
2023-11-28T23:43:32.838Z,25.50
2023-11-28T23:45:59.456Z,17.23
2023-11-28T23:48:26.079Z,14.93
2023-11-28T23:50:52.815Z,15.27
2023-11-28T23:53:19.474Z,18.80
2023-11-28T23:55:46.139Z,16.13
2023-11-28T23:58:13.283Z,13.98
